METAR Formatted Surface Weather Observation
Issued by NWS Charleston, SC

Home | Current Version | Previous Version | Text Only | Print | Product List | Glossary On
Versions: 1 2 3 4 5 6 7 8 9 10 11 12 13 14 15 16 17
000
SAUS42 KCHS 030654
MTRSAV
METAR KSAV 030653Z AUTO 34003KT 10SM CLR 24/22 A3003 RMK AO2 SLP168
T02390222 TSNO



USA.gov is the U.S. government's official web portal to all federal, state and local government web resources and services.